createdAt,value
2023-04-26T00:00:49.953Z,37.69
2023-04-26T00:01:49.913Z,38.47
2023-04-26T00:02:50.002Z,39.29
2023-04-26T00:03:50.155Z,39.92
2023-04-26T00:04:50.066Z,39.31
2023-04-26T00:05:49.958Z,38.28
2023-04-26T00:06:49.878Z,39.89
2023-04-26T00:07:49.890Z,39.36
2023-04-26T00:08:50.020Z,38.10
2023-04-26T00:09:49.837Z,38.92
2023-04-26T00:10:49.851Z,39.67
2023-04-26T00:11:49.841Z,39.46
2023-04-26T00:12:49.808Z,39.04
2023-04-26T00:13:49.828Z,40.31
2023-04-26T00:14:49.829Z,40.52
2023-04-26T00:15:49.921Z,39.37
2023-04-26T00:16:49.779Z,40.24
2023-04-26T00:17:49.785Z,39.74
2023-04-26T00:18:49.765Z,39.84
2023-04-26T00:19:49.761Z,39.70
2023-04-26T00:20:49.744Z,39.83
2023-04-26T00:21:49.793Z,40.45
2023-04-26T00:22:49.719Z,45.78
2023-04-26T00:23:49.719Z,39.34
2023-04-26T00:24:50.701Z,38.70
2023-04-26T00:25:49.709Z,40.07
2023-04-26T00:26:49.689Z,40.58
2023-04-26T00:27:49.680Z,40.39
2023-04-26T00:28:49.673Z,39.80
2023-04-26T00:29:49.653Z,39.38
2023-04-26T00:30:49.646Z,39.84
2023-04-26T00:31:49.688Z,39.79
2023-04-26T00:32:49.642Z,39.32
2023-04-26T00:33:49.619Z,39.53
2023-04-26T00:34:49.599Z,40.03
2023-04-26T00:35:49.579Z,39.79
2023-04-26T00:36:49.568Z,40.47
2023-04-26T00:37:49.624Z,40.53
2023-04-26T00:38:49.768Z,39.42
2023-04-26T00:39:49.559Z,40.58
2023-04-26T00:40:49.552Z,40.40
2023-04-26T00:41:49.516Z,41.35
2023-04-26T00:42:49.511Z,42.95
2023-04-26T00:43:49.537Z,41.61
2023-04-26T00:44:49.511Z,40.92
2023-04-26T00:45:49.516Z,40.59
2023-04-26T00:46:49.487Z,41.19
2023-04-26T00:47:49.531Z,41.43
2023-04-26T00:48:49.527Z,41.64
2023-04-26T00:49:49.468Z,43.38
2023-04-26T00:50:49.442Z,43.77
2023-04-26T00:51:49.418Z,42.23
2023-04-26T00:52:49.431Z,43.01
2023-04-26T00:53:49.401Z,43.78
2023-04-26T00:54:49.434Z,41.67
2023-04-26T00:55:49.436Z,41.42
2023-04-26T00:56:49.372Z,40.98
2023-04-26T00:57:49.379Z,41.96
2023-04-26T00:58:49.737Z,41.66
2023-04-26T00:59:49.358Z,41.92
2023-04-26T01:00:49.336Z,41.97
2023-04-26T01:01:49.405Z,42.18
2023-04-26T01:02:49.409Z,42.57
2023-04-26T01:03:49.526Z,42.04
2023-04-26T01:04:49.300Z,42.56
2023-04-26T01:05:49.302Z,42.31
2023-04-26T01:06:49.265Z,41.56
2023-04-26T01:07:49.271Z,41.30
2023-04-26T01:08:49.429Z,41.92
2023-04-26T01:09:49.313Z,43.05
2023-04-26T01:10:49.253Z,43.21
2023-04-26T01:11:49.225Z,43.39
2023-04-26T01:12:49.235Z,42.99
2023-04-26T01:13:49.208Z,44.85
2023-04-26T01:14:49.213Z,43.64
2023-04-26T01:15:49.198Z,43.32
2023-04-26T01:16:49.217Z,43.44
2023-04-26T01:17:49.201Z,43.32
2023-04-26T01:18:49.294Z,42.86
2023-04-26T01:19:49.177Z,46.63
2023-04-26T01:20:49.142Z,42.19
2023-04-26T01:21:49.129Z,42.95
2023-04-26T01:22:49.111Z,42.01
2023-04-26T01:23:49.123Z,43.66
2023-04-26T01:24:49.086Z,44.80
2023-04-26T01:25:49.080Z,43.52
2023-04-26T01:26:49.074Z,43.10
2023-04-26T01:27:49.067Z,43.99
2023-04-26T01:28:49.131Z,44.69
2023-04-26T01:29:49.058Z,44.58
2023-04-26T01:30:49.041Z,43.34
2023-04-26T01:31:49.019Z,47.17
2023-04-26T01:32:49.030Z,44.59
2023-04-26T01:33:49.027Z,45.10
2023-04-26T01:34:48.999Z,45.35
2023-04-26T01:35:48.971Z,45.50
2023-04-26T01:36:48.973Z,48.15
2023-04-26T01:37:48.971Z,47.19
2023-04-26T01:38:49.083Z,49.03
2023-04-26T01:39:48.945Z,44.49
2023-04-26T01:40:48.947Z,44.19
2023-04-26T01:41:48.934Z,45.03
2023-04-26T01:42:48.925Z,45.57
2023-04-26T01:43:48.917Z,45.74
2023-04-26T01:44:48.949Z,47.18
2023-04-26T01:45:48.906Z,44.52
2023-04-26T01:46:48.994Z,45.41
2023-04-26T01:47:48.920Z,45.93
2023-04-26T01:48:48.881Z,46.31
2023-04-26T01:49:48.890Z,44.54
2023-04-26T01:50:48.846Z,44.56
2023-04-26T01:51:48.845Z,44.76
2023-04-26T01:52:48.811Z,45.08
2023-04-26T01:53:48.807Z,44.89
2023-04-26T01:54:48.827Z,46.40
2023-04-26T01:55:48.810Z,48.12
2023-04-26T01:56:48.790Z,46.49
2023-04-26T01:57:48.762Z,45.73
2023-04-26T01:58:48.762Z,45.23
2023-04-26T01:59:48.776Z,45.36
2023-04-26T02:00:48.744Z,45.12
2023-04-26T02:01:48.762Z,45.83
2023-04-26T02:02:48.832Z,44.50
2023-04-26T02:03:48.753Z,43.61
2023-04-26T02:04:48.734Z,44.17
2023-04-26T02:05:48.695Z,43.30
2023-04-26T02:06:48.667Z,47.13
2023-04-26T02:07:48.689Z,43.16
2023-04-26T02:08:48.655Z,43.75
2023-04-26T02:09:48.690Z,44.61
2023-04-26T02:10:48.645Z,44.65
2023-04-26T02:11:48.634Z,44.39
2023-04-26T02:12:48.617Z,45.17
2023-04-26T02:13:48.681Z,44.23
2023-04-26T02:14:48.615Z,45.97
2023-04-26T02:15:48.605Z,46.71
2023-04-26T02:16:48.585Z,46.19
2023-04-26T02:17:48.636Z,45.55
2023-04-26T02:18:48.573Z,45.72
2023-04-26T02:19:48.561Z,46.09
2023-04-26T02:20:48.541Z,46.72
2023-04-26T02:21:48.549Z,45.52
2023-04-26T02:22:48.530Z,44.87
2023-04-26T02:23:48.520Z,47.97
2023-04-26T02:24:48.527Z,46.47
2023-04-26T02:25:48.498Z,46.55
2023-04-26T02:26:48.483Z,46.54
2023-04-26T02:27:48.474Z,46.89
2023-04-26T02:28:48.487Z,46.74
2023-04-26T02:29:48.478Z,46.79
2023-04-26T02:30:48.438Z,45.64
2023-04-26T02:31:48.468Z,45.78
2023-04-26T02:32:48.445Z,46.67
2023-04-26T02:33:48.439Z,47.00
2023-04-26T02:34:48.427Z,48.54
2023-04-26T02:35:48.387Z,49.93
2023-04-26T02:36:48.397Z,48.24
2023-04-26T02:37:48.423Z,46.87
2023-04-26T02:38:48.380Z,49.13
2023-04-26T02:39:48.386Z,49.31
2023-04-26T02:40:48.366Z,47.57
2023-04-26T02:41:48.330Z,48.77
2023-04-26T02:42:48.320Z,47.02
2023-04-26T02:43:48.316Z,46.95
2023-04-26T02:44:48.309Z,45.92
2023-04-26T02:45:48.392Z,51.20
2023-04-26T02:46:48.361Z,47.59
2023-04-26T02:47:48.335Z,50.81
2023-04-26T02:48:48.266Z,46.80
2023-04-26T02:49:48.272Z,48.76
2023-04-26T02:50:48.245Z,51.02
2023-04-26T02:51:48.237Z,49.55
2023-04-26T02:52:48.227Z,49.56
2023-04-26T02:53:48.234Z,49.17
2023-04-26T02:54:48.212Z,48.88
2023-04-26T02:55:48.217Z,48.46
2023-04-26T02:56:48.185Z,48.64
2023-04-26T02:57:48.192Z,49.01
2023-04-26T03:01:33.142Z,49.57
2023-04-26T03:02:33.254Z,48.99
2023-04-26T03:03:33.226Z,48.87
2023-04-26T03:04:32.996Z,48.55
2023-04-26T03:05:33.004Z,48.64
2023-04-26T03:06:32.975Z,50.56
2023-04-26T03:07:32.972Z,52.10
2023-04-26T03:08:32.955Z,55.86
2023-04-26T03:09:32.946Z,52.88
2023-04-26T03:10:32.938Z,53.71
2023-04-26T03:11:32.927Z,50.63
2023-04-26T03:12:32.911Z,55.97
2023-04-26T03:13:32.905Z,58.31
2023-04-26T03:14:32.893Z,57.53
2023-04-26T03:15:32.895Z,58.22
2023-04-26T03:16:32.885Z,54.61
2023-04-26T03:17:32.934Z,57.13
2023-04-26T03:18:32.865Z,56.41
2023-04-26T03:19:32.841Z,58.17
2023-04-26T03:20:32.841Z,56.63
2023-04-26T03:21:32.831Z,56.78
2023-04-26T03:22:32.815Z,57.48
2023-04-26T03:23:32.806Z,57.22
2023-04-26T03:24:32.792Z,58.68
2023-04-26T03:25:32.796Z,61.09
2023-04-26T03:26:32.770Z,58.02
2023-04-26T03:27:32.759Z,56.50
2023-04-26T03:28:32.752Z,57.43
2023-04-26T03:29:32.743Z,58.05
2023-04-26T03:30:32.735Z,55.76
2023-04-26T03:31:32.749Z,56.97
2023-04-26T03:32:32.769Z,58.03
2023-04-26T03:33:32.709Z,55.80
2023-04-26T03:34:32.690Z,54.75
2023-04-26T03:35:32.690Z,52.98
2023-04-26T03:36:32.667Z,56.36
2023-04-26T03:37:32.666Z,55.82
2023-04-26T03:38:32.647Z,56.12
2023-04-26T03:39:32.641Z,57.66
2023-04-26T03:40:32.630Z,56.70
2023-04-26T03:41:32.616Z,57.11
2023-04-26T03:42:32.614Z,57.19
2023-04-26T03:43:32.602Z,56.14
2023-04-26T03:44:32.580Z,57.44
2023-04-26T03:45:32.619Z,56.50
2023-04-26T03:46:32.668Z,58.15
2023-04-26T03:47:32.581Z,56.28
2023-04-26T03:48:32.542Z,53.73
2023-04-26T03:49:32.532Z,55.01
2023-04-26T03:50:32.531Z,55.22
2023-04-26T03:51:32.512Z,53.98
2023-04-26T03:52:32.512Z,56.40
2023-04-26T03:53:32.507Z,50.70
2023-04-26T03:54:32.484Z,52.36
2023-04-26T03:55:32.476Z,55.42
2023-04-26T03:56:32.456Z,55.62
2023-04-26T03:57:32.449Z,53.57
2023-04-26T03:58:32.449Z,54.03
2023-04-26T03:59:32.432Z,55.36
2023-04-26T04:00:32.426Z,55.38
2023-04-26T04:01:32.405Z,55.16
2023-04-26T04:02:32.537Z,53.21
2023-04-26T04:03:32.547Z,55.61
2023-04-26T04:04:32.547Z,55.83
2023-04-26T04:05:32.416Z,55.34
2023-04-26T04:06:32.360Z,52.01
2023-04-26T04:07:32.348Z,54.50
2023-04-26T04:08:32.327Z,54.20
2023-04-26T04:09:32.338Z,54.19
2023-04-26T04:10:32.322Z,53.71
2023-04-26T04:11:32.304Z,53.37
2023-04-26T04:12:32.302Z,54.34
2023-04-26T04:13:32.286Z,53.99
2023-04-26T04:14:32.273Z,53.86
2023-04-26T04:15:32.322Z,50.99
2023-04-26T04:16:32.277Z,52.70
2023-04-26T04:17:32.310Z,56.17
2023-04-26T04:18:32.245Z,52.75
2023-04-26T04:19:32.222Z,53.79
2023-04-26T04:20:32.224Z,55.01
2023-04-26T04:21:32.199Z,56.67
2023-04-26T04:22:32.201Z,56.14
2023-04-26T04:23:32.187Z,56.19
2023-04-26T04:24:34.290Z,58.14
2023-04-26T04:25:32.169Z,54.85
2023-04-26T04:26:32.275Z,53.67
2023-04-26T04:27:32.167Z,53.72
2023-04-26T04:28:32.128Z,53.09
2023-04-26T04:29:32.124Z,57.11
2023-04-26T04:30:32.125Z,58.26
2023-04-26T04:31:32.123Z,56.34
2023-04-26T04:32:34.197Z,56.32
2023-04-26T04:33:32.080Z,54.91
2023-04-26T04:34:32.096Z,57.74
2023-04-26T04:35:32.076Z,57.58
2023-04-26T04:36:32.048Z,54.37
2023-04-26T04:37:32.044Z,53.05
2023-04-26T04:38:32.031Z,54.95
2023-04-26T04:39:32.024Z,52.99
2023-04-26T04:40:32.029Z,55.65
2023-04-26T04:41:32.003Z,56.07
2023-04-26T04:42:31.995Z,57.27
2023-04-26T04:43:31.988Z,54.41
2023-04-26T04:44:31.974Z,56.72
2023-04-26T04:45:31.968Z,57.07
2023-04-26T04:46:32.004Z,54.22
2023-04-26T04:47:31.970Z,52.30
2023-04-26T04:48:31.927Z,52.51
2023-04-26T04:49:31.928Z,55.89
2023-04-26T04:50:31.923Z,56.86
2023-04-26T04:51:31.899Z,54.81
2023-04-26T04:52:31.893Z,55.44
2023-04-26T04:53:31.882Z,56.44
2023-04-26T04:54:31.875Z,56.12
2023-04-26T04:55:31.875Z,55.96
2023-04-26T04:56:31.856Z,55.17
2023-04-26T04:57:31.845Z,53.15
2023-04-26T04:58:31.889Z,53.60
2023-04-26T04:59:31.881Z,55.53
2023-04-26T05:00:31.821Z,55.52
2023-04-26T05:01:31.816Z,53.32
2023-04-26T05:02:31.860Z,56.29
2023-04-26T05:03:31.927Z,52.70
2023-04-26T05:04:32.044Z,53.09
2023-04-26T05:05:31.760Z,55.12
2023-04-26T05:06:31.753Z,55.05
2023-04-26T05:07:31.746Z,54.80
2023-04-26T05:08:31.732Z,53.24
2023-04-26T05:09:31.726Z,55.39
2023-04-26T05:10:31.724Z,54.69
2023-04-26T05:11:31.704Z,58.34
2023-04-26T05:12:31.695Z,55.87
2023-04-26T05:13:31.679Z,56.50
2023-04-26T05:14:31.716Z,53.52
2023-04-26T05:15:31.698Z,54.01
2023-04-26T05:16:31.678Z,55.15
2023-04-26T05:17:31.707Z,60.05
2023-04-26T05:18:31.635Z,63.64
2023-04-26T05:19:31.631Z,58.28
2023-04-26T05:20:31.630Z,54.00
2023-04-26T05:21:31.616Z,55.89
2023-04-26T05:22:31.601Z,56.54
2023-04-26T05:23:31.590Z,53.97
2023-04-26T05:24:31.602Z,57.21
2023-04-26T05:25:31.582Z,56.61
2023-04-26T05:26:31.563Z,57.82
2023-04-26T05:27:31.556Z,56.35
2023-04-26T05:28:31.545Z,57.24
2023-04-26T05:29:31.536Z,58.27
2023-04-26T05:30:31.549Z,55.30
2023-04-26T05:31:31.620Z,55.78
2023-04-26T05:32:31.557Z,55.85
2023-04-26T05:33:31.495Z,56.67
2023-04-26T05:34:31.487Z,55.90
2023-04-26T05:35:31.482Z,56.82
2023-04-26T05:36:31.467Z,55.70
2023-04-26T05:37:31.455Z,55.79
2023-04-26T05:38:31.446Z,58.43
2023-04-26T05:39:31.433Z,52.37
2023-04-26T05:40:31.438Z,57.57
2023-04-26T05:41:31.410Z,57.07
2023-04-26T05:42:31.420Z,55.33
2023-04-26T05:43:31.392Z,53.57
2023-04-26T05:44:31.387Z,54.73
2023-04-26T05:45:31.449Z,52.58
2023-04-26T05:46:31.396Z,54.24
2023-04-26T05:47:31.391Z,55.68
2023-04-26T05:48:31.352Z,55.44
2023-04-26T05:49:31.330Z,55.42
2023-04-26T05:50:31.343Z,53.35
2023-04-26T05:51:31.322Z,56.66
2023-04-26T05:52:31.322Z,53.87
2023-04-26T05:53:31.294Z,53.74
2023-04-26T05:54:31.286Z,57.20
2023-04-26T05:55:31.293Z,52.48
2023-04-26T05:56:31.264Z,50.09
2023-04-26T05:57:31.417Z,52.03
2023-04-26T05:58:31.251Z,57.60
2023-04-26T05:59:31.255Z,54.37
2023-04-26T06:00:31.234Z,53.44
2023-04-26T06:01:31.220Z,55.31
2023-04-26T06:02:31.313Z,54.95
2023-04-26T06:03:31.431Z,55.30
2023-04-26T06:04:31.279Z,54.61
2023-04-26T06:05:31.242Z,51.81
2023-04-26T06:06:31.162Z,52.50
2023-04-26T06:07:31.150Z,55.38
2023-04-26T06:08:31.149Z,55.64
2023-04-26T06:09:31.124Z,52.57
2023-04-26T06:10:31.129Z,52.28
2023-04-26T06:11:31.126Z,52.88
2023-04-26T06:12:31.122Z,55.52
2023-04-26T06:13:31.091Z,53.45
2023-04-26T06:14:31.202Z,52.08
2023-04-26T06:15:31.085Z,57.08
2023-04-26T06:16:31.133Z,53.10
2023-04-26T06:17:31.060Z,51.33
2023-04-26T06:18:31.052Z,49.70
2023-04-26T06:19:31.028Z,54.45
2023-04-26T06:20:31.040Z,54.29
2023-04-26T06:21:31.007Z,51.42
2023-04-26T06:22:30.997Z,54.29
2023-04-26T06:23:31.004Z,49.59
2023-04-26T06:24:30.982Z,53.53
2023-04-26T06:25:30.975Z,49.29
2023-04-26T06:26:30.978Z,49.92
2023-04-26T06:27:30.949Z,46.95
2023-04-26T06:28:30.954Z,51.93
2023-04-26T06:29:30.930Z,51.22
2023-04-26T06:30:30.937Z,52.22
2023-04-26T06:31:31.020Z,48.34
2023-04-26T06:32:30.924Z,45.80
2023-04-26T06:33:30.889Z,46.63
2023-04-26T06:34:30.880Z,52.53
2023-04-26T06:35:30.875Z,50.46
2023-04-26T06:36:30.886Z,48.06
2023-04-26T06:37:30.848Z,55.41
2023-04-26T06:38:30.841Z,46.62
2023-04-26T06:39:30.831Z,49.84
2023-04-26T06:40:30.828Z,47.89
2023-04-26T06:41:30.814Z,55.00
2023-04-26T06:42:30.794Z,53.45
2023-04-26T06:43:31.020Z,51.65
2023-04-26T06:44:30.877Z,52.07
2023-04-26T06:45:30.763Z,53.68
2023-04-26T06:46:30.814Z,51.53
2023-04-26T06:47:30.826Z,47.03
2023-04-26T06:48:30.741Z,50.57
2023-04-26T06:49:30.740Z,44.39
2023-04-26T06:50:30.720Z,47.40
2023-04-26T06:51:30.710Z,45.56
2023-04-26T06:52:30.691Z,48.03
2023-04-26T06:53:30.680Z,46.77
2023-04-26T06:54:30.668Z,46.30
2023-04-26T06:55:30.668Z,47.86
2023-04-26T06:56:30.662Z,42.88
2023-04-26T06:57:30.650Z,48.25
2023-04-26T06:58:30.638Z,53.01
2023-04-26T06:59:30.628Z,48.36
2023-04-26T07:00:30.766Z,42.93
2023-04-26T07:01:30.646Z,50.58
2023-04-26T07:02:30.687Z,48.35
2023-04-26T07:03:30.684Z,46.99
2023-04-26T07:04:30.952Z,41.04
2023-04-26T07:05:30.560Z,42.23
2023-04-26T07:06:30.571Z,44.90
2023-04-26T07:07:30.538Z,45.64
2023-04-26T07:08:30.527Z,44.76
2023-04-26T07:09:30.518Z,44.90
2023-04-26T07:10:30.515Z,44.95
2023-04-26T07:11:30.509Z,46.01
2023-04-26T07:12:30.481Z,47.44
2023-04-26T07:13:30.468Z,42.43
2023-04-26T07:14:30.466Z,46.95
2023-04-26T07:15:30.455Z,45.54
2023-04-26T07:16:30.716Z,43.67
2023-04-26T07:17:30.447Z,49.29
2023-04-26T07:18:30.424Z,46.86
2023-04-26T07:19:30.413Z,45.02
2023-04-26T07:20:30.404Z,46.31
2023-04-26T07:21:30.404Z,50.17
2023-04-26T07:22:30.385Z,46.57
2023-04-26T07:23:30.369Z,45.19
2023-04-26T07:24:30.358Z,46.75
2023-04-26T07:25:30.345Z,45.49
2023-04-26T07:26:30.355Z,49.19
2023-04-26T07:27:30.324Z,49.50
2023-04-26T07:28:30.315Z,44.71
2023-04-26T07:29:30.302Z,46.61
2023-04-26T07:30:30.295Z,40.99
2023-04-26T07:31:30.295Z,45.30
2023-04-26T07:32:30.380Z,47.18
2023-04-26T07:33:30.326Z,46.78
2023-04-26T07:34:30.259Z,41.50
2023-04-26T07:35:30.257Z,47.56
2023-04-26T07:36:30.248Z,42.36
2023-04-26T07:37:30.227Z,46.00
2023-04-26T07:38:30.218Z,46.59
2023-04-26T07:39:30.213Z,47.94
2023-04-26T07:40:30.190Z,41.56
2023-04-26T07:41:30.196Z,40.22
2023-04-26T07:42:30.176Z,45.16
2023-04-26T07:43:30.162Z,42.70
2023-04-26T07:44:30.165Z,50.37
2023-04-26T07:45:30.176Z,46.96
2023-04-26T07:46:30.150Z,45.42
2023-04-26T07:47:30.127Z,49.02
2023-04-26T07:48:30.129Z,45.87
2023-04-26T07:49:30.100Z,43.28
2023-04-26T07:50:30.091Z,51.48
2023-04-26T07:51:30.097Z,42.47
2023-04-26T07:52:30.076Z,46.98
2023-04-26T07:53:30.059Z,45.29
2023-04-26T07:54:30.045Z,46.33
2023-04-26T07:55:30.031Z,46.16
2023-04-26T07:56:30.028Z,46.03
2023-04-26T07:57:30.026Z,50.22
2023-04-26T07:58:30.011Z,59.53
2023-04-26T07:59:29.988Z,69.63
2023-04-26T08:00:29.986Z,67.98
2023-04-26T08:01:29.966Z,67.18
2023-04-26T08:02:43.527Z,64.02
2023-04-26T08:03:31.120Z,58.90
2023-04-26T08:04:30.141Z,59.60
2023-04-26T08:05:30.145Z,59.67
2023-04-26T08:06:29.921Z,49.86
2023-04-26T08:07:29.933Z,59.74
2023-04-26T08:08:29.896Z,63.10
2023-04-26T08:09:29.890Z,51.03
2023-04-26T08:10:29.897Z,52.58
2023-04-26T08:11:29.896Z,51.44
2023-04-26T08:12:29.873Z,48.42
2023-04-26T08:13:29.845Z,64.38
2023-04-26T08:14:29.850Z,64.50
2023-04-26T08:15:30.074Z,63.78
2023-04-26T09:36:36.108Z,44.91
2023-04-26T09:37:41.168Z,50.01
2023-04-26T10:34:03.190Z,48.83
2023-04-26T10:35:03.178Z,52.57
2023-04-26T10:36:03.179Z,43.49
2023-04-26T10:37:03.151Z,55.31
2023-04-26T10:38:03.142Z,46.71
2023-04-26T10:39:03.132Z,50.48
2023-04-26T10:40:03.120Z,50.15
2023-04-26T10:41:03.103Z,46.81
2023-04-26T10:42:03.102Z,47.28
2023-04-26T10:43:03.083Z,42.57
2023-04-26T10:44:03.089Z,46.50
2023-04-26T10:45:03.059Z,49.19
2023-04-26T10:46:03.109Z,44.11
2023-04-26T10:47:03.058Z,48.52
2023-04-26T10:48:03.058Z,49.21
2023-04-26T10:49:03.047Z,40.16
2023-04-26T10:50:05.110Z,49.55
2023-04-26T10:51:03.015Z,42.02
2023-04-26T10:52:03.006Z,43.76
2023-04-26T10:53:03.005Z,40.48
2023-04-26T10:54:03.013Z,46.23
2023-04-26T10:55:02.978Z,46.56
2023-04-26T10:56:02.979Z,47.98
2023-04-26T10:57:02.946Z,45.04
2023-04-26T10:58:02.950Z,50.89
2023-04-26T10:59:06.278Z,45.52
2023-04-26T11:00:03.917Z,41.98
2023-04-26T11:01:02.939Z,50.98
2023-04-26T11:02:02.910Z,46.81
2023-04-26T11:03:02.952Z,46.26
2023-04-26T11:04:02.955Z,48.05
2023-04-26T11:05:02.990Z,47.97
2023-04-26T11:06:02.864Z,43.66
2023-04-26T11:07:02.840Z,48.46
2023-04-26T11:08:02.872Z,50.98
2023-04-26T11:09:02.827Z,44.46
2023-04-26T11:10:02.828Z,44.91
2023-04-26T11:11:03.948Z,51.39
2023-04-26T11:12:03.947Z,45.53
2023-04-26T11:13:03.952Z,44.64
2023-04-26T11:14:03.921Z,45.90
2023-04-26T11:15:03.924Z,48.50
2023-04-26T11:16:03.978Z,49.80
2023-04-26T11:17:03.881Z,46.61
2023-04-26T11:18:03.966Z,46.00
2023-04-26T11:19:03.890Z,45.72
2023-04-26T11:20:04.048Z,49.42
2023-04-26T11:21:03.841Z,44.22
2023-04-26T11:22:03.855Z,49.09
2023-04-26T11:23:04.846Z,47.74
2023-04-26T11:24:03.852Z,51.15
2023-04-26T11:25:03.813Z,51.10
2023-04-26T11:26:03.814Z,55.48
2023-04-26T11:27:03.828Z,45.05
2023-04-26T11:28:03.815Z,44.79
2023-04-26T11:29:03.786Z,45.98
2023-04-26T11:30:03.854Z,48.79
2023-04-26T11:31:05.965Z,49.62
2023-04-26T11:32:03.766Z,48.84
2023-04-26T11:33:03.794Z,47.03
2023-04-26T11:34:03.757Z,50.21
2023-04-26T11:35:03.723Z,47.48
2023-04-26T11:36:03.761Z,52.04
2023-04-26T11:37:03.710Z,42.38
2023-04-26T11:38:03.699Z,47.11
2023-04-26T11:39:03.707Z,41.69
2023-04-26T11:40:03.709Z,46.84
2023-04-26T11:41:03.675Z,50.96
2023-04-26T11:42:03.662Z,52.04
2023-04-26T11:43:03.676Z,50.52
2023-04-26T11:44:03.669Z,46.52
2023-04-26T11:45:03.635Z,44.38
2023-04-26T11:46:03.691Z,46.80
2023-04-26T11:47:03.651Z,51.09
2023-04-26T11:48:03.623Z,54.44
2023-04-26T11:49:03.582Z,50.68
2023-04-26T11:50:03.584Z,47.57
2023-04-26T11:51:03.568Z,46.85
2023-04-26T11:52:03.577Z,47.88
2023-04-26T11:53:03.564Z,40.45
2023-04-26T11:54:03.537Z,48.60
2023-04-26T11:55:03.529Z,44.07
2023-04-26T11:56:03.551Z,46.28
2023-04-26T11:57:03.514Z,44.27
2023-04-26T11:58:03.503Z,40.17
2023-04-26T11:59:03.470Z,43.93
2023-04-26T12:00:03.459Z,46.18
2023-04-26T12:01:03.459Z,46.49
2023-04-26T12:02:03.488Z,50.72
2023-04-26T12:03:03.683Z,48.40
2023-04-26T12:04:03.568Z,49.29
2023-04-26T12:05:03.682Z,50.76
2023-04-26T12:06:03.415Z,49.45
2023-04-26T12:07:03.390Z,52.08
2023-04-26T12:08:03.412Z,53.09
2023-04-26T12:09:03.505Z,53.39
2023-04-26T12:10:03.396Z,46.62
2023-04-26T12:11:03.408Z,47.20
2023-04-26T12:12:03.369Z,49.75
2023-04-26T12:13:03.366Z,48.16
2023-04-26T12:14:03.376Z,52.21
2023-04-26T12:15:03.343Z,49.81
2023-04-26T12:16:07.342Z,50.54
2023-04-26T12:17:04.460Z,48.20
2023-04-26T12:18:03.366Z,45.81
2023-04-26T12:19:03.337Z,50.42
2023-04-26T12:20:03.351Z,39.02
2023-04-26T12:21:03.278Z,46.45
2023-04-26T12:22:03.266Z,48.94
2023-04-26T12:23:03.271Z,46.36
2023-04-26T12:24:03.238Z,44.70
2023-04-26T12:25:03.302Z,45.97
2023-04-26T12:26:03.214Z,47.09
2023-04-26T12:27:03.215Z,48.76
2023-04-26T12:28:03.252Z,50.02
2023-04-26T12:29:03.210Z,46.21
2023-04-26T12:30:03.208Z,50.24
2023-04-26T12:31:03.814Z,51.73
2023-04-26T12:32:03.425Z,50.61
2023-04-26T12:33:15.684Z,44.95
2023-04-26T12:34:05.130Z,51.21
2023-04-26T12:35:03.166Z,45.08
2023-04-26T12:36:03.127Z,41.43
2023-04-26T12:37:03.114Z,52.19
2023-04-26T12:38:03.092Z,49.71
2023-04-26T12:39:03.084Z,45.54
2023-04-26T12:40:03.077Z,50.60
2023-04-26T12:41:03.068Z,43.78
2023-04-26T12:42:03.059Z,49.32
2023-04-26T12:43:03.085Z,49.91
2023-04-26T12:44:03.042Z,45.29
2023-04-26T12:45:03.052Z,47.54
2023-04-26T12:46:03.071Z,43.67
2023-04-26T12:47:03.011Z,48.04
2023-04-26T12:48:03.044Z,47.22
2023-04-26T12:49:03.007Z,51.82
2023-04-26T12:50:02.967Z,47.99
2023-04-26T12:51:02.961Z,51.68
2023-04-26T12:52:02.943Z,52.17
2023-04-26T12:53:02.955Z,51.57
2023-04-26T12:54:02.944Z,38.78
2023-04-26T12:55:02.922Z,41.70
2023-04-26T12:56:02.906Z,47.23
2023-04-26T12:57:02.929Z,44.60
2023-04-26T12:58:02.894Z,47.71
2023-04-26T12:59:02.889Z,42.94
2023-04-26T13:00:02.880Z,46.16
2023-04-26T13:01:02.935Z,50.55
2023-04-26T13:02:02.882Z,48.36
2023-04-26T13:03:03.029Z,46.18
2023-04-26T13:04:02.977Z,49.93
2023-04-26T13:05:02.890Z,48.75
2023-04-26T13:06:02.829Z,48.23
2023-04-26T13:07:02.784Z,46.48
2023-04-26T13:08:02.812Z,45.31
2023-04-26T13:09:02.760Z,51.49
2023-04-26T13:10:02.768Z,40.30
2023-04-26T13:11:02.760Z,47.67
2023-04-26T13:12:02.724Z,49.56
2023-04-26T13:13:02.753Z,47.94
2023-04-26T13:14:02.756Z,52.72
2023-04-26T13:15:02.717Z,48.87
2023-04-26T13:16:02.763Z,47.69
2023-04-26T13:17:02.715Z,49.26
2023-04-26T13:18:02.745Z,45.13
2023-04-26T13:19:02.717Z,52.51
2023-04-26T13:20:02.694Z,49.37
2023-04-26T13:21:02.668Z,48.05
2023-04-26T13:22:02.651Z,47.40
2023-04-26T13:23:02.635Z,47.04
2023-04-26T13:24:02.678Z,50.59
2023-04-26T13:25:02.785Z,51.85
2023-04-26T13:26:02.606Z,50.34
2023-04-26T13:27:02.628Z,44.22
2023-04-26T13:28:02.606Z,52.61
2023-04-26T13:29:02.578Z,47.32
2023-04-26T13:30:02.568Z,46.66
2023-04-26T13:31:02.600Z,43.96
2023-04-26T13:32:02.560Z,45.75
2023-04-26T13:33:02.558Z,48.48
2023-04-26T13:34:02.518Z,48.14
2023-04-26T13:35:02.540Z,48.51
2023-04-26T13:36:02.493Z,54.74
2023-04-26T13:37:02.504Z,48.95
2023-04-26T13:38:02.485Z,45.45
2023-04-26T13:39:02.468Z,44.92
2023-04-26T13:40:02.465Z,45.52
2023-04-26T13:41:02.491Z,47.44
2023-04-26T13:42:02.448Z,50.78
2023-04-26T13:43:02.480Z,47.22
2023-04-26T13:44:02.425Z,48.02
2023-04-26T13:45:02.422Z,51.08
2023-04-26T13:46:02.436Z,50.05
2023-04-26T13:47:02.401Z,50.73
2023-04-26T13:48:02.458Z,47.15
2023-04-26T13:49:02.354Z,42.53
2023-04-26T13:50:02.357Z,41.79
2023-04-26T13:51:03.577Z,47.92
2023-04-26T13:52:03.333Z,49.63
2023-04-26T13:53:02.329Z,43.08
2023-04-26T13:54:02.320Z,40.52
2023-04-26T13:55:02.300Z,45.43
2023-04-26T13:56:02.307Z,50.14
2023-04-26T13:57:02.273Z,39.42
2023-04-26T13:58:02.266Z,44.56
2023-04-26T13:59:02.257Z,52.49
2023-04-26T14:00:02.307Z,44.69
2023-04-26T14:01:02.266Z,41.05
2023-04-26T14:02:02.271Z,47.94
2023-04-26T14:03:02.453Z,54.19
2023-04-26T14:04:02.679Z,50.80
2023-04-26T14:05:02.343Z,42.06
2023-04-26T14:06:02.202Z,46.17
2023-04-26T14:07:02.176Z,49.84
2023-04-26T14:08:02.190Z,45.99
2023-04-26T14:09:02.175Z,51.27
2023-04-26T14:10:02.195Z,49.35
2023-04-26T14:11:02.156Z,42.29
2023-04-26T14:12:08.607Z,43.80
2023-04-26T14:13:04.133Z,43.99
2023-04-26T14:14:02.127Z,43.00
2023-04-26T14:15:02.095Z,48.45
2023-04-26T14:16:02.122Z,45.22
2023-04-26T14:17:02.079Z,42.78
2023-04-26T14:18:02.194Z,45.92
2023-04-26T14:19:02.054Z,47.44
2023-04-26T14:20:02.110Z,41.67
2023-04-26T14:21:02.047Z,45.04
2023-04-26T14:22:02.047Z,47.47
2023-04-26T14:23:02.037Z,45.70
2023-04-26T14:24:02.044Z,42.62
2023-04-26T14:25:02.052Z,42.41
2023-04-26T14:26:02.013Z,44.40
2023-04-26T14:27:01.996Z,44.95
2023-04-26T14:28:02.001Z,45.25
2023-04-26T14:29:01.962Z,38.98
2023-04-26T14:30:01.942Z,45.29
2023-04-26T14:31:01.947Z,48.61
2023-04-26T14:32:02.019Z,42.66
2023-04-26T14:33:01.953Z,44.59
2023-04-26T14:34:01.929Z,50.02
2023-04-26T14:35:01.885Z,53.37
2023-04-26T14:36:01.887Z,54.48
2023-04-26T14:37:01.884Z,55.20
2023-04-26T14:38:01.908Z,45.96
2023-04-26T14:39:01.889Z,48.89
2023-04-26T14:40:01.934Z,51.99
2023-04-26T14:41:01.864Z,49.74
2023-04-26T14:42:01.866Z,51.80
2023-04-26T14:43:01.839Z,59.20
2023-04-26T14:44:01.846Z,50.27
2023-04-26T14:45:01.816Z,48.40
2023-04-26T14:46:01.823Z,48.55
2023-04-26T14:47:01.791Z,44.41
2023-04-26T14:48:01.815Z,45.90
2023-04-26T14:49:01.773Z,47.59
2023-04-26T14:50:01.785Z,43.76
2023-04-26T14:51:01.740Z,48.51
2023-04-26T14:52:01.725Z,50.81
2023-04-26T14:53:01.754Z,47.20
2023-04-26T14:54:01.722Z,48.15
2023-04-26T14:55:01.699Z,49.69
2023-04-26T14:56:01.676Z,47.42
2023-04-26T14:57:01.730Z,52.54
2023-04-26T14:58:01.699Z,49.99
2023-04-26T14:59:01.699Z,47.37
2023-04-26T15:00:01.656Z,49.97
2023-04-26T15:01:01.689Z,43.47
2023-04-26T15:02:01.686Z,49.84
2023-04-26T15:03:01.798Z,44.09
2023-04-26T15:04:01.962Z,43.66
2023-04-26T15:05:01.643Z,41.79
2023-04-26T15:06:01.607Z,40.76
2023-04-26T15:07:01.575Z,48.63
2023-04-26T15:08:01.564Z,48.00
2023-04-26T15:09:01.597Z,42.03
2023-04-26T15:10:01.668Z,44.40
2023-04-26T15:11:01.556Z,49.38